Broomfield, Colorado
Current Conditions -  °F | °C
As of 5:47 PM on Saturday 22 Nov 2014 (Local Time) from KBJC Reporting Station
Broken Clouds Broken Clouds  
Wind Chill: 50°   Ceiling: 12000
Heat Index: 50°   Visibility: 30mi
Dew Point: 23°   Wind: 22mph
Humidity: 35%   Direction: 260°W
Pressure: 29.62"   Gusts: 30mph
Location:  39.92°N, 105.06°W
Report Text: KBJC 230047Z 26019G26KT 30SM FEW060 BKN120 BKN200 10/M05 A2962
Loading
Personal Weather Stations






























Interactive Weather Map New forecast layout! Learn more

10-Day Weather Forecast

Advertisements
Track Severe Weather on mobile